KDTW/DTW METAR and TAF weather

Enter ICAO airport designator
Station Type Date Time Source
KDTW METAR 2021/05/14 04:53 UTC NOAA

KDTW 140453Z 00000KT 10SM FEW100 SCT220 10/02 A3030 RMK AO2 SLP261 T01000022


Station Type Date Time Source
KDTW Decoded METAR 2021/05/14 04:53 UTC NOAA

DETROIT METROPOLITAN, MI, United States (KDTW) 42-14N 83-20W 195M
May 14, 2021 - 12:53 AM EDT / 2021.05.14 0453 UTC
Wind: Calm:0
Visibility: 10 mile(s):0
Sky conditions: partly cloudy
Temperature: 50.0 F (10.0 C)
Dew Point: 36.0 F (2.2 C)
Relative Humidity: 58%
Pressure (altimeter): 30.3 in. Hg (1026 hPa)
ob: KDTW 140453Z 00000KT 10SM FEW100 SCT220 10/02 A3030 RMK AO2 SLP261 T01000022 402060044
cycle: 5

Station Type Date Time Source
KDTW TAF 2021/05/14 03:09 UTC NOAA

TAF
AMD KDTW 140305Z 1403/1506 VRB02KT P6SM SKC
FM141500 25005KT P6SM FEW080

Example: see airport list